Autaugaville, Alabama
Current Conditions -  °F | °C
As of 12:35 PM on Sunday 21 Dec 2014 (Local Time) from K1A9 Reporting Station
Overcast Overcast  
Wind Chill: 53°   Ceiling: 1400
Heat Index: 53°   Visibility: 10mi
Dew Point: 47°   Wind: 7mph
Humidity: 81%   Direction: 80°E
Pressure: 30.09"   Gusts: NA
Location:  32.43°N, 86.65°W
Report Text: K1A9 211835Z AUTO 08006KT 10SM OVC014 12/09 A3009 RMK AO2 T01170086
Loading
Personal Weather Stations






























Interactive Weather Map New forecast layout! Learn more

10-Day Weather Forecast

Advertisements
Track Severe Weather on mobile